Time;durP1;ratioP1;P1;durP2;ratioP2;P2;SDS_P1;SDS_P2;PMS_P1;PMS_P2;Temp;Humidity;BMP_temperature;BMP_pressure;BME280_temperature;BME280_humidity;BME280_pressure;Samples;Min_cycle;Max_cycle;Signal;HPM_P1;HPM_P2
2022/06/30 00:00:33;;;;;;;13.05;11.28;;;;;;;23.20;76.23;98298.05;1730409;82;25684;-62
2022/06/30 00:02:59;;;;;;;14.85;12.63;;;;;;;23.19;76.42;98293.67;1730601;82;25638;-57
2022/06/30 00:05:25;;;;;;;15.00;12.25;;;;;;;23.16;76.62;98286.91;1730874;82;25442;-61
2022/06/30 00:07:51;;;;;;;16.42;12.13;;;;;;;23.16;76.60;98286.11;1730633;82;27614;-58
2022/06/30 00:10:17;;;;;;;15.63;13.18;;;;;;;23.15;76.69;98277.53;1730739;82;25800;-59
2022/06/30 00:12:43;;;;;;;19.05;13.48;;;;;;;23.15;76.41;98273.34;1752753;81;25909;-57
2022/06/30 00:15:11;;;;;;;14.75;13.03;;;;;;;23.13;76.52;98281.33;1760275;81;25418;-56
2022/06/30 00:17:38;;;;;;;14.83;12.50;;;;;;;23.11;76.71;98273.98;1759778;81;25723;-62
2022/06/30 00:20:05;;;;;;;16.70;13.70;;;;;;;23.11;76.47;98274.75;1759725;81;27408;-58
2022/06/30 00:22:31;;;;;;;17.25;13.53;;;;;;;23.12;76.29;98279.16;1760088;81;25676;-59
2022/06/30 00:24:58;;;;;;;16.10;13.22;;;;;;;23.11;76.36;98276.16;1760328;81;25660;-59
2022/06/30 00:27:24;;;;;;;14.00;12.53;;;;;;;23.04;76.65;98267.23;1760196;81;25656;-57
2022/06/30 00:29:50;;;;;;;14.85;13.13;;;;;;;22.97;77.52;98260.26;1760312;81;25992;-56
2022/06/30 00:32:16;;;;;;;16.02;13.62;;;;;;;22.92;77.68;98252.33;1760274;81;27634;-58
2022/06/30 00:34:42;;;;;;;17.82;13.65;;;;;;;22.88;77.32;98256.53;1759834;81;25775;-59
2022/06/30 00:37:08;;;;;;;15.95;13.10;;;;;;;22.86;77.59;98257.55;1759787;81;25479;-62
2022/06/30 00:39:34;;;;;;;15.05;13.50;;;;;;;22.85;77.57;98253.77;1759770;81;25436;-63
2022/06/30 00:42:01;;;;;;;15.15;12.63;;;;;;;22.85;77.56;98252.38;1760194;81;25482;-64
2022/06/30 00:44:28;;;;;;;17.17;13.60;;;;;;;22.80;78.26;98252.20;1759960;81;26682;-64
2022/06/30 00:46:54;;;;;;;15.23;13.48;;;;;;;22.78;78.33;98255.40;1760023;81;25453;-62
2022/06/30 00:49:20;;;;;;;15.45;13.05;;;;;;;22.78;77.74;98251.80;1760234;81;25716;-64
2022/06/30 00:51:47;;;;;;;15.90;13.48;;;;;;;22.75;78.43;98247.02;1760138;81;25538;-64
2022/06/30 00:54:14;;;;;;;15.25;13.50;;;;;;;22.69;78.28;98250.23;1760228;81;25625;-64
2022/06/30 00:56:45;;;;;;;15.30;13.70;;;;;;;22.66;78.50;98246.88;1759839;81;29437;-64
2022/06/30 00:59:14;;;;;;;16.70;13.90;;;;;;;22.61;79.08;98251.48;1759951;81;25619;-64
2022/06/30 01:01:43;;;;;;;15.35;12.65;;;;;;;22.56;79.30;98245.69;1760063;81;25465;-64
2022/06/30 01:04:09;;;;;;;19.92;13.88;;;;;;;22.56;79.45;98238.70;1760002;81;25446;-64
2022/06/30 01:06:38;;;;;;;15.08;13.13;;;;;;;22.60;79.50;98243.51;1760275;81;25478;-64
2022/06/30 01:09:04;;;;;;;16.35;13.62;;;;;;;22.58;79.72;98241.68;1760033;81;27386;-63
2022/06/30 01:14:18;;;;;;;16.65;14.20;;;;;;;22.59;79.59;98243.33;1730551;82;25653;-60
2022/06/30 01:16:45;;;;;;;17.02;14.25;;;;;;;22.55;79.99;98244.70;1730616;82;25699;-65
2022/06/30 01:19:14;;;;;;;17.73;14.58;;;;;;;22.51;80.27;98243.30;1730639;82;25496;-64
2022/06/30 01:22:02;;;;;;;20.00;15.30;;;;;;;22.48;80.17;98242.72;1730592;82;27585;-65
2022/06/30 01:24:28;;;;;;;20.02;14.78;;;;;;;22.46;80.10;98236.77;1730557;82;25837;-64
2022/06/30 01:26:57;;;;;;;17.87;14.50;;;;;;;22.38;80.59;98238.78;1730546;82;25639;-63
2022/06/30 01:29:24;;;;;;;18.92;15.25;;;;;;;22.33;81.19;98237.02;1730343;82;25610;-64
2022/06/30 01:31:50;;;;;;;17.57;14.20;;;;;;;22.28;81.19;98234.81;1730354;82;25658;-64
2022/06/30 01:34:17;;;;;;;15.25;13.62;;;;;;;22.27;81.27;98229.64;1730622;82;28187;-64
2022/06/30 01:36:43;;;;;;;16.45;14.68;;;;;;;22.23;81.55;98235.84;1730449;81;25678;-63
2022/06/30 01:39:09;;;;;;;18.90;15.35;;;;;;;22.22;81.24;98239.84;1730759;82;25490;-64
2022/06/30 01:41:35;;;;;;;16.27;13.13;;;;;;;22.22;81.36;98233.64;1730664;82;26144;-64
2022/06/30 01:44:01;;;;;;;15.88;13.35;;;;;;;22.19;81.50;98231.06;1730599;82;25661;-65
2022/06/30 01:46:27;;;;;;;17.70;13.80;;;;;;;22.14;81.40;98229.30;1730692;82;28181;-64
2022/06/30 01:48:53;;;;;;;16.93;13.75;;;;;;;22.10;81.77;98227.13;1730359;82;25658;-64
2022/06/30 01:51:19;;;;;;;16.45;14.18;;;;;;;22.08;81.59;98226.13;1730738;82;25656;-64
2022/06/30 01:53:45;;;;;;;20.43;14.33;;;;;;;22.09;81.36;98226.91;1730408;82;25484;-64
2022/06/30 01:56:11;;;;;;;20.12;14.70;;;;;;;22.09;81.47;98222.72;1730930;82;25449;-64
2022/06/30 01:58:37;;;;;;;15.40;13.45;;;;;;;22.06;81.17;98227.92;1730504;82;27626;-64
2022/06/30 02:01:03;;;;;;;17.57;13.70;;;;;;;22.05;81.57;98222.12;1730721;82;25584;-64
2022/06/30 02:03:28;;;;;;;17.12;14.78;;;;;;;22.04;81.10;98221.94;1730676;82;25621;-64
2022/06/30 02:05:54;;;;;;;17.10;14.07;;;;;;;21.97;81.20;98224.76;1730877;81;25471;-64
2022/06/30 02:08:20;;;;;;;15.83;13.53;;;;;;;21.97;81.18;98221.16;1730805;82;25618;-64
2022/06/30 02:10:47;;;;;;;18.30;14.03;;;;;;;21.92;81.59;98229.34;1730813;82;27404;-63
2022/06/30 02:13:13;;;;;;;17.00;13.98;;;;;;;21.90;81.42;98235.91;1730381;82;25650;-63
2022/06/30 02:15:39;;;;;;;16.48;13.48;;;;;;;21.93;81.05;98251.84;1730682;82;25688;-64
2022/06/30 02:18:08;;;;;;;15.50;13.05;;;;;;;21.97;80.86;98269.98;1730608;82;25483;-64
2022/06/30 02:20:37;;;;;;;17.52;13.18;;;;;;;21.99;80.79;98273.17;1730870;82;25437;-64
2022/06/30 02:23:04;;;;;;;16.65;14.07;;;;;;;21.95;80.63;98264.80;1730751;82;27388;-64
2022/06/30 02:25:32;;;;;;;14.90;13.32;;;;;;;21.92;80.57;98267.00;1730282;82;25933;-64
2022/06/30 02:27:59;;;;;;;18.98;13.75;;;;;;;21.97;80.44;98263.00;1730751;82;25768;-65
2022/06/30 02:30:25;;;;;;;17.62;13.43;;;;;;;21.99;80.46;98262.02;1730562;82;25644;-63
2022/06/30 02:32:52;;;;;;;16.35;13.72;;;;;;;21.90;80.38;98256.83;1730446;82;25428;-64
2022/06/30 02:35:19;;;;;;;15.53;13.30;;;;;;;21.94;80.26;98270.97;1709569;82;28325;-64
2022/06/30 02:37:45;;;;;;;17.90;13.08;;;;;;;21.99;80.10;98282.94;1730774;82;25444;-64
2022/06/30 02:40:12;;;;;;;14.53;12.85;;;;;;;22.01;79.93;98292.49;1730532;82;25452;-65
2022/06/30 02:42:38;;;;;;;18.30;13.62;;;;;;;22.01;79.73;98294.48;1730619;82;26342;-64
2022/06/30 02:45:05;;;;;;;16.17;13.40;;;;;;;22.02;79.70;98290.51;1730503;82;25760;-64
2022/06/30 02:47:35;;;;;;;17.10;14.05;;;;;;;22.05;79.55;98293.89;1730767;82;27401;-64
2022/06/30 02:50:06;;;;;;;15.60;13.90;;;;;;;22.05;79.42;98300.87;1730786;82;25830;-64
2022/06/30 02:52:35;;;;;;;15.10;12.85;;;;;;;22.03;79.33;98310.23;1730884;82;25712;-63
2022/06/30 02:55:03;;;;;;;19.62;13.60;;;;;;;21.94;79.21;98313.43;1730802;82;25590;-63
2022/06/30 02:57:30;;;;;;;16.90;13.70;;;;;;;21.80;79.83;98305.86;1730732;82;25729;-65
2022/06/30 02:59:57;;;;;;;15.38;13.45;;;;;;;21.72;79.76;98300.05;1730813;82;27713;-65
2022/06/30 03:02:23;;;;;;;19.25;13.98;;;;;;;21.76;79.91;98300.27;1730625;82;25677;-63
2022/06/30 03:04:50;;;;;;;16.62;13.88;;;;;;;21.79;79.80;98295.91;1731119;82;25420;-63
2022/06/30 03:07:16;;;;;;;17.02;13.98;;;;;;;21.80;79.81;98296.10;1730893;82;25568;-64
2022/06/30 03:09:42;;;;;;;15.25;13.62;;;;;;;21.86;79.62;98294.50;1730955;82;25736;-64
2022/06/30 03:12:09;;;;;;;16.62;13.25;;;;;;;21.92;79.47;98299.88;1730653;82;28202;-64
2022/06/30 03:14:36;;;;;;;17.48;13.43;;;;;;;21.97;79.35;98316.01;1730635;82;25552;-61
2022/06/30 03:17:02;;;;;;;17.92;13.75;;;;;;;21.97;79.11;98312.62;1730538;82;25634;-61
2022/06/30 03:19:28;;;;;;;17.32;13.40;;;;;;;21.97;79.28;98320.19;1730712;82;25417;-64
2022/06/30 03:21:54;;;;;;;16.20;12.30;;;;;;;22.02;79.04;98318.41;1730669;82;25490;-63
2022/06/30 03:24:21;;;;;;;16.52;13.48;;;;;;;21.95;79.03;98320.59;1730778;82;28444;-63
2022/06/30 03:26:48;;;;;;;17.37;13.60;;;;;;;21.93;79.17;98327.16;1730671;82;25436;-64
2022/06/30 03:29:15;;;;;;;19.57;14.45;;;;;;;21.92;79.41;98331.16;1730608;82;25601;-64
2022/06/30 03:31:48;;;;;;;15.80;13.68;;;;;;;21.99;79.21;98337.34;1730870;82;25428;-64
2022/06/30 03:34:18;;;;;;;17.10;14.00;;;;;;;21.95;79.37;98333.15;1730474;82;25670;-64
2022/06/30 03:36:44;;;;;;;15.43;13.65;;;;;;;21.89;79.72;98326.38;1730740;82;27460;-64
2022/06/30 03:39:10;;;;;;;19.07;14.93;;;;;;;21.86;80.18;98318.80;1730807;82;25723;-64
2022/06/30 03:41:36;;;;;;;18.17;14.30;;;;;;;21.86;80.31;98322.98;1730766;82;25690;-64
2022/06/30 03:44:04;;;;;;;19.05;14.10;;;;;;;21.87;80.42;98323.98;1730760;82;26150;-64
2022/06/30 03:46:30;;;;;;;17.40;14.55;;;;;;;21.91;80.68;98326.78;1730661;82;25646;-64
2022/06/30 03:48:56;;;;;;;18.12;13.98;;;;;;;21.97;80.61;98327.97;1730704;82;28220;-65
2022/06/30 03:51:23;;;;;;;17.07;14.15;;;;;;;22.08;80.63;98346.11;1730929;82;25468;-64
2022/06/30 03:53:49;;;;;;;18.55;14.85;;;;;;;22.26;80.36;98357.83;1730655;82;25758;-65
2022/06/30 03:56:15;;;;;;;20.85;14.65;;;;;;;22.46;80.15;98356.00;1730404;82;25488;-65
2022/06/30 03:58:41;;;;;;;17.80;14.05;;;;;;;22.61;79.83;98355.39;1730840;82;25617;-65
2022/06/30 04:01:07;;;;;;;17.77;14.35;;;;;;;22.70;79.46;98355.77;1730381;82;27457;-64
2022/06/30 04:03:33;;;;;;;16.97;14.05;;;;;;;22.84;79.38;98359.70;1730607;82;25763;-65
2022/06/30 04:06:06;;;;;;;16.90;14.60;;;;;;;23.02;79.15;98363.82;1730793;82;25681;-64
2022/06/30 04:08:40;;;;;;;23.75;18.32;;;;;;;23.18;78.65;98354.98;1730476;81;25492;-65
2022/06/30 04:11:07;;;;;;;25.77;21.15;;;;;;;23.31;78.31;98356.09;1730740;82;25651;-64
2022/06/30 04:13:33;;;;;;;23.60;18.87;;;;;;;23.42;77.95;98355.27;1730414;82;27414;-65
2022/06/30 04:16:00;;;;;;;24.07;18.70;;;;;;;23.42;77.45;98353.86;1730609;82;25975;-65
2022/06/30 04:18:27;;;;;;;20.05;17.10;;;;;;;23.42;77.85;98347.68;1730787;82;25734;-63
2022/06/30 04:20:54;;;;;;;18.85;16.32;;;;;;;23.46;77.58;98352.45;1730659;82;25719;-65
2022/06/30 04:23:20;;;;;;;21.42;16.52;;;;;;;23.59;77.29;98352.75;1730792;82;25456;-65
2022/06/30 04:25:47;;;;;;;18.60;16.35;;;;;;;23.64;77.37;98354.53;1730684;82;27414;-64
2022/06/30 04:28:12;;;;;;;18.55;16.48;;;;;;;23.68;76.62;98348.30;1730555;82;25852;-65
2022/06/30 04:33:24;;;;;;;19.90;17.67;;;;;;;23.94;76.36;98349.50;1730468;82;25465;-65
2022/06/30 04:35:50;;;;;;;18.30;16.00;;;;;;;24.08;75.91;98344.98;1730968;82;25437;-65
2022/06/30 04:38:16;;;;;;;18.57;16.60;;;;;;;24.22;76.21;98350.48;1730669;82;27323;-61
2022/06/30 04:43:28;;;;;;;19.35;17.30;;;;;;;24.54;75.54;98356.36;1730365;82;25589;-65
2022/06/30 04:45:55;;;;;;;18.00;16.10;;;;;;;24.77;74.37;98356.31;1730472;82;25762;-64
2022/06/30 04:48:21;;;;;;;20.08;17.02;;;;;;;24.86;73.57;98354.99;1730683;82;25729;-65
2022/06/30 04:50:47;;;;;;;20.57;16.75;;;;;;;24.87;73.68;98351.77;1730764;82;27583;-64
2022/06/30 04:53:14;;;;;;;21.37;16.70;;;;;;;25.00;72.99;98355.45;1730738;82;25855;-65
2022/06/30 04:55:40;;;;;;;18.12;16.07;;;;;;;25.13;72.69;98345.27;1730625;82;25501;-61
2022/06/30 04:58:07;;;;;;;23.55;17.80;;;;;;;25.11;72.47;98349.13;1730557;82;25477;-65
2022/06/30 05:00:33;;;;;;;23.02;16.95;;;;;;;25.26;72.68;98348.91;1730298;82;25468;-65
2022/06/30 05:03:00;;;;;;;18.65;16.65;;;;;;;25.45;72.11;98346.05;1730800;82;27582;-65
2022/06/30 05:05:27;;;;;;;20.60;16.40;;;;;;;25.56;71.32;98349.47;1730376;82;25440;-65
2022/06/30 05:07:54;;;;;;;19.42;17.23;;;;;;;25.61;71.32;98355.84;1730883;82;25705;-65
2022/06/30 05:10:21;;;;;;;21.52;17.50;;;;;;;25.78;71.27;98359.59;1730340;82;25752;-60
2022/06/30 05:12:47;;;;;;;19.05;16.93;;;;;;;25.87;70.57;98354.84;1730643;82;25590;-66
2022/06/30 05:15:14;;;;;;;21.60;17.05;;;;;;;26.05;70.37;98361.59;1730413;82;27506;-66
2022/06/30 05:17:41;;;;;;;18.55;16.67;;;;;;;26.14;69.42;98363.84;1730524;81;25893;-64
2022/06/30 05:20:09;;;;;;;18.98;16.55;;;;;;;26.18;68.74;98365.97;1730575;82;25613;-66
2022/06/30 05:22:36;;;;;;;18.80;15.85;;;;;;;26.18;68.95;98359.75;1730718;82;25610;-65
2022/06/30 05:27:49;;;;;;;17.40;15.48;;;;;;;26.43;68.86;98354.30;1730394;82;27560;-66
2022/06/30 05:30:17;;;;;;;16.57;14.87;;;;;;;26.57;68.42;98355.27;1730227;82;25672;-64
2022/06/30 05:32:45;;;;;;;18.73;15.98;;;;;;;26.67;66.37;98347.24;1730580;82;25623;-66
2022/06/30 05:35:12;;;;;;;17.35;15.53;;;;;;;26.73;66.70;98355.16;1730776;82;25609;-65
2022/06/30 05:37:39;;;;;;;19.15;16.60;;;;;;;26.84;67.02;98361.36;1730460;82;25562;-63
2022/06/30 05:40:08;;;;;;;18.65;15.72;;;;;;;26.85;66.95;98362.17;1730711;82;27369;-65
2022/06/30 05:42:35;;;;;;;20.50;16.23;;;;;;;26.84;66.67;98363.37;1723599;82;25691;-66
2022/06/30 05:45:03;;;;;;;21.33;15.55;;;;;;;26.86;67.27;98366.55;1720286;82;25416;-65
2022/06/30 05:47:29;;;;;;;16.93;15.23;;;;;;;26.96;67.38;98359.91;1730536;82;25978;-66
2022/06/30 05:49:56;;;;;;;17.12;15.32;;;;;;;26.91;66.01;98362.61;1730564;82;25654;-66
2022/06/30 05:52:23;;;;;;;18.75;16.12;;;;;;;26.79;66.84;98359.84;1730856;82;28166;-66
2022/06/30 05:54:49;;;;;;;17.45;15.68;;;;;;;26.96;67.05;98357.70;1730144;82;25705;-65
2022/06/30 05:57:16;;;;;;;19.82;16.90;;;;;;;27.14;66.58;98363.00;1730540;82;25594;-65
2022/06/30 05:59:43;;;;;;;18.17;16.27;;;;;;;27.32;65.95;98354.17;1730323;82;25620;-66
2022/06/30 06:02:09;;;;;;;19.23;16.82;;;;;;;27.34;66.01;98356.55;1712920;82;25901;-66
2022/06/30 06:04:36;;;;;;;18.60;16.67;;;;;;;27.41;65.23;98361.40;1712102;81;27453;-57
2022/06/30 06:07:03;;;;;;;20.50;18.30;;;;;;;27.37;65.04;98359.27;1758782;81;26167;-64
2022/06/30 06:09:31;;;;;;;19.90;17.87;;;;;;;27.41;64.79;98356.38;1736312;80;26142;-66
2022/06/30 06:11:58;;;;;;;21.00;18.45;;;;;;;27.58;65.46;98363.44;1709082;83;25722;-65
2022/06/30 06:14:25;;;;;;;21.68;17.23;;;;;;;27.70;65.29;98356.34;1714899;83;25894;-64
2022/06/30 06:16:52;;;;;;;20.20;17.55;;;;;;;27.85;64.64;98359.00;1715180;83;27249;-66
2022/06/30 06:19:18;;;;;;;19.52;16.95;;;;;;;27.79;64.56;98360.14;1714032;83;25721;-66
2022/06/30 06:21:45;;;;;;;20.05;17.90;;;;;;;27.79;64.52;98362.96;1722421;82;25666;-66
2022/06/30 06:24:11;;;;;;;22.73;17.92;;;;;;;27.92;64.62;98363.67;1720161;82;25720;-66
2022/06/30 06:26:38;;;;;;;22.22;17.95;;;;;;;27.91;63.86;98365.69;1720074;83;25656;-64
2022/06/30 06:29:07;;;;;;;19.30;16.95;;;;;;;28.04;64.08;98361.53;1724846;82;27528;-65
2022/06/30 06:31:37;;;;;;;19.20;15.80;;;;;;;28.27;63.14;98366.02;1730393;82;25740;-67
2022/06/30 06:34:04;;;;;;;19.65;16.30;;;;;;;28.32;61.84;98359.08;1714788;83;26335;-66
2022/06/30 06:36:32;;;;;;;22.05;16.48;;;;;;;28.33;63.62;98362.06;1733247;82;25605;-66
2022/06/30 06:38:59;;;;;;;21.93;17.90;;;;;;;28.48;61.96;98367.49;1715211;83;25682;-66
2022/06/30 06:41:26;;;;;;;20.57;18.02;;;;;;;28.38;61.86;98362.31;1733117;82;27482;-65
2022/06/30 06:43:53;;;;;;;22.40;18.23;;;;;;;28.51;61.64;98364.39;1733139;82;25672;-67
2022/06/30 06:46:26;;;;;;;22.60;17.20;;;;;;;28.55;61.29;98362.27;1733280;82;25459;-66
2022/06/30 06:48:48;;;;;;;23.05;18.42;;;;;;;28.60;62.18;98365.16;1732023;82;25724;-66
2022/06/30 06:51:15;;;;;;;18.98;16.87;;;;;;;28.82;61.19;98359.72;1733220;82;25599;-63
2022/06/30 06:53:41;;;;;;;26.07;17.95;;;;;;;29.07;61.05;98361.67;1714959;83;27653;-66
2022/06/30 06:56:08;;;;;;;24.25;19.00;;;;;;;29.18;59.62;98367.77;1732955;82;25472;-65
2022/06/30 06:58:35;;;;;;;25.40;19.27;;;;;;;29.23;59.85;98370.66;1732708;82;26320;-67
2022/06/30 07:01:01;;;;;;;23.92;18.85;;;;;;;29.43;59.86;98361.99;1733176;82;25877;-66
2022/06/30 07:03:29;;;;;;;22.50;18.23;;;;;;;29.65;59.07;98354.30;1733159;82;25463;-66
2022/06/30 07:05:56;;;;;;;22.40;18.95;;;;;;;29.98;59.44;98350.39;1733261;82;27433;-65
2022/06/30 07:08:23;;;;;;;23.05;18.55;;;;;;;30.26;58.42;98347.26;1732902;82;26254;-66
2022/06/30 07:10:50;;;;;;;20.60;18.40;;;;;;;30.49;57.51;98348.08;1715105;83;25571;-65
2022/06/30 07:13:17;;;;;;;20.32;18.12;;;;;;;30.32;57.39;98352.31;1732924;82;25413;-66
2022/06/30 07:15:43;;;;;;;18.50;16.07;;;;;;;30.42;57.53;98346.28;1730507;82;25395;-66
2022/06/30 07:18:10;;;;;;;19.45;16.25;;;;;;;30.64;57.37;98352.59;1730500;82;28072;-66
2022/06/30 07:20:36;;;;;;;20.00;16.50;;;;;;;30.82;54.18;98347.56;1730572;82;25456;-62
2022/06/30 07:23:03;;;;;;;17.70;15.80;;;;;;;30.91;55.46;98354.05;1730397;82;25637;-62
2022/06/30 07:25:30;;;;;;;18.40;16.37;;;;;;;31.24;55.36;98349.20;1718793;83;25662;-64
2022/06/30 07:27:57;;;;;;;21.42;16.82;;;;;;;31.49;54.74;98355.31;1721498;83;25606;-64
2022/06/30 07:30:25;;;;;;;17.60;15.53;;;;;;;31.61;53.94;98352.84;1725477;82;27437;-63
2022/06/30 07:32:52;;;;;;;21.52;16.42;;;;;;;31.21;52.51;98343.85;1727797;82;25437;-65
2022/06/30 07:35:20;;;;;;;18.30;16.30;;;;;;;31.31;53.97;98344.67;1730290;82;25645;-65
2022/06/30 07:37:47;;;;;;;18.42;15.80;;;;;;;31.63;54.00;98351.12;1730482;82;25456;-65
2022/06/30 07:40:14;;;;;;;18.05;15.13;;;;;;;31.89;53.03;98342.38;1730428;82;25666;-64
2022/06/30 07:42:42;;;;;;;17.50;15.70;;;;;;;32.13;53.07;98341.83;1712338;83;27846;-63
2022/06/30 07:45:11;;;;;;;20.15;16.60;;;;;;;32.44;52.32;98342.95;1730597;82;25435;-64
2022/06/30 07:47:43;;;;;;;20.13;16.70;;;;;;;32.61;50.82;98337.75;1730979;82;25718;-63
2022/06/30 07:50:10;;;;;;;19.57;15.90;;;;;;;32.82;51.40;98351.44;1712393;83;25843;-63
2022/06/30 07:52:37;;;;;;;18.52;15.55;;;;;;;33.10;49.80;98349.36;1730446;82;25736;-64
2022/06/30 07:55:05;;;;;;;19.75;16.50;;;;;;;33.38;50.48;98344.22;1729435;82;27369;-63
2022/06/30 07:57:31;;;;;;;19.35;16.12;;;;;;;33.59;48.99;98343.83;1714014;83;25674;-64
2022/06/30 07:59:58;;;;;;;15.55;14.05;;;;;;;33.40;49.06;98345.33;1712786;83;25682;-64
2022/06/30 08:02:24;;;;;;;18.23;15.03;;;;;;;33.45;48.25;98343.89;1727940;82;25797;-64
2022/06/30 08:04:51;;;;;;;16.12;14.25;;;;;;;33.58;47.93;98345.08;1729303;82;26429;-64
2022/06/30 08:07:18;;;;;;;17.55;14.40;;;;;;;33.77;47.37;98345.02;1725562;81;28302;-64
2022/06/30 08:09:46;;;;;;;16.82;14.30;;;;;;;33.56;46.11;98341.95;1724816;83;25660;-64
2022/06/30 08:12:13;;;;;;;15.95;14.33;;;;;;;33.54;46.27;98348.11;1724708;83;25695;-64
2022/06/30 08:14:39;;;;;;;14.65;13.15;;;;;;;33.44;46.33;98345.79;1737309;82;25749;-64
2022/06/30 08:17:07;;;;;;;14.43;12.98;;;;;;;33.51;45.44;98339.75;1772101;80;25637;-63
2022/06/30 08:19:35;;;;;;;15.05;12.25;;;;;;;33.50;45.40;98343.88;1748432;81;27419;-64
2022/06/30 08:22:01;;;;;;;12.98;11.65;;;;;;;33.75;44.85;98343.28;1772104;80;25774;-64
2022/06/30 08:24:28;;;;;;;12.00;10.80;;;;;;;34.08;42.90;98348.16;1748389;81;25731;-62
2022/06/30 08:26:56;;;;;;;11.20;9.93;;;;;;;34.45;45.18;98348.51;1747463;82;26366;-61
2022/06/30 08:29:23;;;;;;;10.58;9.23;;;;;;;35.01;42.96;98350.08;1744681;81;25668;-62
2022/06/30 08:31:49;;;;;;;11.45;9.05;;;;;;;35.20;42.72;98354.18;1746354;81;27444;-63
2022/06/30 08:34:16;;;;;;;9.45;8.55;;;;;;;35.26;40.94;98354.41;1746713;82;25415;-64
2022/06/30 08:36:42;;;;;;;10.48;9.18;;;;;;;35.54;41.10;98354.06;1746668;81;25648;-64
2022/06/30 08:42:02;;;;;;;10.75;9.10;;;;;;;35.63;41.69;98350.97;1746728;82;25427;-64
2022/06/30 08:44:23;;;;;;;12.50;10.20;;;;;;;35.40;39.53;98342.08;1746429;82;26575;-64
2022/06/30 08:46:51;;;;;;;14.07;10.20;;;;;;;35.18;38.97;98338.98;1746612;81;25991;-64
2022/06/30 08:49:17;;;;;;;10.70;9.00;;;;;;;35.25;40.92;98336.38;1746781;81;25528;-64
2022/06/30 08:51:46;;;;;;;11.38;9.00;;;;;;;35.40;38.67;98343.50;1746595;81;25638;-64
2022/06/30 08:54:16;;;;;;;9.07;8.27;;;;;;;35.25;39.59;98334.95;1746688;81;25657;-62
2022/06/30 08:56:44;;;;;;;12.20;8.93;;;;;;;35.47;39.26;98336.59;1746673;81;27377;-64
2022/06/30 08:59:11;;;;;;;10.23;9.20;;;;;;;36.02;39.86;98336.50;1746390;82;25594;-64
2022/06/30 09:01:38;;;;;;;11.25;9.03;;;;;;;36.33;38.79;98337.79;1746644;82;25487;-64
2022/06/30 09:04:07;;;;;;;42.83;12.13;;;;;;;36.21;39.47;98344.01;1746793;82;26078;-66
2022/06/30 09:06:33;;;;;;;10.93;9.53;;;;;;;35.91;36.73;98334.91;1746532;82;32898;-65
2022/06/30 09:09:00;;;;;;;10.40;9.45;;;;;;;36.02;40.27;98335.70;1746025;82;27367;-63
2022/06/30 09:11:54;;;;;;;13.08;9.73;;;;;;;36.44;40.06;98342.21;1745556;82;25695;-65
2022/06/30 09:14:48;;;;;;;13.20;9.78;;;;;;;36.81;38.74;98337.92;1716721;82;25917;-65
2022/06/30 09:17:21;;;;;;;10.50;9.48;;;;;;;37.53;37.82;98337.52;1699687;84;25697;-64
2022/06/30 09:20:01;;;;;;;11.93;9.38;;;;;;;37.75;35.94;98329.73;1699969;83;25674;-64
2022/06/30 09:22:36;;;;;;;12.55;9.40;;;;;;;37.73;36.16;98328.69;1691587;84;27420;-64
2022/06/30 09:25:08;;;;;;;10.32;9.15;;;;;;;37.65;35.56;98330.55;1718059;83;25684;-64
2022/06/30 09:27:39;;;;;;;13.62;9.90;;;;;;;37.55;35.48;98329.86;1718035;83;25704;-64
2022/06/30 09:30:09;;;;;;;10.50;9.50;;;;;;;37.38;35.75;98324.79;1718108;83;26078;-64
2022/06/30 09:33:00;;;;;;;9.60;8.70;;;;;;;37.50;36.67;98332.15;1718331;83;25480;-63
2022/06/30 09:35:30;;;;;;;11.30;9.53;;;;;;;37.58;36.22;98325.31;1699804;83;26117;-65
2022/06/30 09:38:11;;;;;;;10.78;9.68;;;;;;;36.88;35.58;98323.86;1717841;81;25426;-65
2022/06/30 09:41:02;;;;;;;11.57;9.98;;;;;;;36.40;37.30;98326.73;1717965;83;25431;-64
2022/06/30 09:43:34;;;;;;;23.15;11.33;;;;;;;36.37;36.69;98324.87;1718160;83;25514;-65
2022/06/30 09:46:01;;;;;;;11.78;9.58;;;;;;;36.51;37.14;98328.92;1718334;83;25605;-65
2022/06/30 09:48:31;;;;;;;11.65;9.58;;;;;;;36.48;36.97;98322.80;1717891;83;26695;-65
2022/06/30 09:51:01;;;;;;;12.75;10.90;;;;;;;36.93;38.32;98319.48;1717800;83;25613;-64
2022/06/30 09:53:28;;;;;;;10.72;9.63;;;;;;;37.27;38.40;98318.38;1718056;83;25641;-62
2022/06/30 09:55:55;;;;;;;11.12;9.58;;;;;;;37.54;37.85;98317.63;1717753;83;25743;-64
2022/06/30 09:58:35;;;;;;;12.78;10.30;;;;;;;37.51;36.99;98317.23;1718141;83;25372;-64
2022/06/30 10:01:03;;;;;;;11.00;9.83;;;;;;;37.63;36.30;98310.29;1717960;83;45387;-65
2022/06/30 10:03:30;;;;;;;10.60;9.50;;;;;;;37.85;36.67;98315.23;1718304;83;25686;-65
2022/06/30 10:06:15;;;;;;;17.20;10.20;;;;;;;38.07;36.22;98308.82;1717981;83;25617;-65
2022/06/30 10:08:43;;;;;;;13.72;9.80;;;;;;;38.52;35.01;98305.99;1718464;83;25530;-63
2022/06/30 10:11:11;;;;;;;10.65;8.03;;;;;;;38.97;33.92;98305.27;1718148;83;25659;-64
2022/06/30 10:13:41;;;;;;;8.23;7.45;;;;;;;38.79;32.56;98308.00;1718528;83;27359;-65
2022/06/30 10:16:09;;;;;;;8.33;7.53;;;;;;;38.54;31.68;98309.13;1715448;82;26000;-65
2022/06/30 10:18:40;;;;;;;8.23;7.37;;;;;;;38.99;32.62;98305.55;1759739;80;25612;-65
2022/06/30 10:21:10;;;;;;;6.53;5.92;;;;;;;39.37;29.91;98303.84;1760033;81;25449;-65
2022/06/30 10:23:38;;;;;;;8.88;6.37;;;;;;;39.27;29.61;98303.99;1759846;80;25682;-65
2022/06/30 10:26:06;;;;;;;6.83;5.80;;;;;;;39.33;29.88;98294.73;1760034;80;27585;-65
2022/06/30 10:28:33;;;;;;;6.25;5.50;;;;;;;39.69;29.48;98299.12;1759884;81;25664;-66
2022/06/30 10:31:10;;;;;;;7.47;6.28;;;;;;;39.69;27.75;98289.88;1759885;80;25627;-65
2022/06/30 10:34:00;;;;;;;7.25;5.17;;;;;;;39.26;28.85;98290.31;1759812;81;26117;-65
2022/06/30 10:36:59;;;;;;;6.65;5.78;;;;;;;39.60;27.61;98290.92;1759698;80;25664;-65
2022/06/30 10:39:58;;;;;;;8.00;7.00;;;;;;;40.02;29.86;98286.77;1759823;81;27671;-65
2022/06/30 10:42:46;;;;;;;6.87;5.87;;;;;;;40.44;28.79;98281.71;1759111;81;25965;-65
2022/06/30 10:45:34;;;;;;;6.58;5.78;;;;;;;40.14;28.06;98283.18;1760012;81;25726;-65
2022/06/30 10:48:07;;;;;;;7.60;5.75;;;;;;;40.47;28.46;98282.09;1760144;81;26273;-65
2022/06/30 10:50:43;;;;;;;6.12;5.53;;;;;;;40.59;26.87;98271.33;1760116;80;25617;-66
2022/06/30 10:53:17;;;;;;;8.63;6.10;;;;;;;40.61;27.26;98277.97;1760029;80;27408;-66
2022/06/30 10:55:55;;;;;;;9.53;5.87;;;;;;;40.99;26.49;98277.43;1760035;81;25497;-65
2022/06/30 10:58:22;;;;;;;7.30;6.60;;;;;;;40.74;26.34;98281.64;1760002;80;25651;-65
2022/06/30 11:01:00;;;;;;;7.17;5.50;;;;;;;40.74;27.01;98270.95;1759808;80;25477;-66
2022/06/30 11:03:38;;;;;;;6.65;6.05;;;;;;;40.83;26.21;98272.70;1759994;81;25705;-66
2022/06/30 11:06:13;;;;;;;6.65;5.40;;;;;;;41.04;26.80;98273.73;1760330;80;27595;-65
2022/06/30 11:08:57;;;;;;;5.22;4.40;;;;;;;41.28;26.64;98263.57;1760297;80;25745;-65
2022/06/30 11:11:28;;;;;;;4.92;4.10;;;;;;;41.41;25.36;98263.60;1759289;80;25813;-65
2022/06/30 11:14:09;;;;;;;5.30;4.70;;;;;;;41.62;24.77;98252.38;1759762;81;25647;-65
2022/06/30 11:16:38;;;;;;;6.15;4.35;;;;;;;41.71;23.40;98259.20;1759843;81;25838;-63
2022/06/30 11:19:09;;;;;;;5.42;3.65;;;;;;;41.20;24.35;98257.64;1760374;81;27020;-65
2022/06/30 11:21:43;;;;;;;6.22;3.85;;;;;;;41.07;24.27;98253.20;1747421;81;26015;-64
2022/06/30 11:24:11;;;;;;;5.58;4.72;;;;;;;40.88;24.66;98243.80;1728313;83;25716;-65
2022/06/30 11:29:28;;;;;;;4.67;4.28;;;;;;;41.15;24.36;98244.09;1720654;83;25629;-65
2022/06/30 11:32:01;;;;;;;5.22;4.28;;;;;;;41.07;23.76;98245.34;1720634;83;27448;-65
2022/06/30 11:34:28;;;;;;;4.92;4.08;;;;;;;40.83;24.55;98246.06;1720617;83;25785;-65
2022/06/30 11:36:55;;;;;;;4.00;3.70;;;;;;;41.18;24.36;98248.00;1720856;83;25625;-65
2022/06/30 11:39:22;;;;;;;6.22;4.05;;;;;;;41.31;23.44;98243.02;1720922;83;26032;-65
2022/06/30 11:41:57;;;;;;;5.28;4.40;;;;;;;41.51;25.21;98233.95;1720552;83;25465;-65